createdAt,value
2023-02-03T00:00:40.224Z,6.75
2023-02-03T00:05:37.074Z,6.77
2023-02-03T00:10:38.352Z,6.75
2023-02-03T00:15:34.854Z,6.75
2023-02-03T00:20:31.235Z,6.75
2023-02-03T00:25:27.901Z,6.79
2023-02-03T00:30:24.656Z,6.78
2023-02-03T00:35:21.524Z,6.79
2023-02-03T00:40:18.306Z,6.79
2023-02-03T00:45:15.163Z,6.81
2023-02-03T00:50:11.788Z,6.80
2023-02-03T00:55:08.607Z,6.81
2023-02-03T01:00:06.244Z,6.82
2023-02-03T01:05:02.610Z,6.83
2023-02-03T01:09:59.074Z,6.85
2023-02-03T01:14:55.419Z,6.86
2023-02-03T01:19:52.885Z,6.87
2023-02-03T01:24:49.235Z,6.86
2023-02-03T01:29:45.970Z,6.88
2023-02-03T01:34:42.277Z,6.91
2023-02-03T01:39:38.585Z,6.89
2023-02-03T01:44:51.387Z,6.93
2023-02-03T01:50:06.760Z,6.95
2023-02-03T01:55:07.939Z,6.92
2023-02-03T02:00:07.047Z,6.91
2023-02-03T02:05:13.681Z,6.93
2023-02-03T02:10:10.810Z,6.93
2023-02-03T02:15:07.764Z,6.92
2023-02-03T02:20:28.859Z,6.92
2023-02-03T02:25:42.296Z,6.89
2023-02-03T02:30:53.990Z,6.92
2023-02-03T02:36:07.077Z,6.93
2023-02-03T02:41:09.828Z,6.92
2023-02-03T02:46:12.576Z,7.00
2023-02-03T02:51:12.986Z,7.01
2023-02-03T02:56:13.722Z,7.00
2023-02-03T03:01:11.589Z,7.03
2023-02-03T03:06:14.192Z,7.05
2023-02-03T03:11:11.249Z,7.05
2023-02-03T03:16:09.842Z,7.06
2023-02-03T03:21:06.763Z,7.02
2023-02-03T03:26:16.716Z,7.04
2023-02-03T03:31:13.282Z,7.05
2023-02-03T03:36:30.562Z,7.01
2023-02-03T03:41:38.293Z,7.00
2023-02-03T03:46:46.167Z,7.00
2023-02-03T03:51:53.762Z,7.04
2023-02-03T03:57:05.488Z,7.02
2023-02-03T04:02:04.790Z,7.01
2023-02-03T04:07:01.403Z,7.01
2023-02-03T04:12:05.725Z,7.01
2023-02-03T04:17:02.074Z,7.00
2023-02-03T04:21:58.380Z,7.01
2023-02-03T04:26:55.072Z,7.09
2023-02-03T04:31:51.418Z,7.10
2023-02-03T04:36:47.823Z,7.08
2023-02-03T04:41:44.114Z,7.08
2023-02-03T04:46:40.484Z,7.07
2023-02-03T04:51:36.788Z,7.10
2023-02-03T04:56:33.094Z,7.08
2023-02-03T05:01:29.521Z,7.06
2023-02-03T05:06:28.855Z,7.09
2023-02-03T05:11:25.335Z,7.05
2023-02-03T05:16:21.974Z,7.09
2023-02-03T05:21:18.897Z,7.08
2023-02-03T05:26:15.265Z,7.10
2023-02-03T05:31:11.856Z,7.10
2023-02-03T05:36:09.108Z,7.14
2023-02-03T05:41:24.086Z,7.14
2023-02-03T05:46:20.475Z,7.09
2023-02-03T05:51:16.840Z,7.11
2023-02-03T05:56:13.224Z,7.14
2023-02-03T06:01:11.643Z,7.16
2023-02-03T06:06:07.984Z,7.10
2023-02-03T06:11:04.504Z,6.97
2023-02-03T06:16:00.965Z,6.96
2023-02-03T06:20:57.308Z,6.83
2023-02-03T06:25:53.729Z,6.69
2023-02-03T06:30:51.713Z,6.61
2023-02-03T06:35:48.183Z,6.58
2023-02-03T06:40:47.229Z,6.57
2023-02-03T06:45:47.350Z,6.59
2023-02-03T06:50:47.533Z,6.58
2023-02-03T06:55:44.883Z,6.56
2023-02-03T07:00:41.265Z,6.54
2023-02-03T07:05:37.822Z,6.52
2023-02-03T07:10:34.173Z,6.50
2023-02-03T07:15:30.649Z,6.48
2023-02-03T07:20:29.074Z,6.48
2023-02-03T07:25:26.285Z,6.48
2023-02-03T07:30:23.527Z,6.47
2023-02-03T07:35:20.450Z,6.52
2023-02-03T07:40:17.391Z,6.54
2023-02-03T07:45:15.807Z,6.56
2023-02-03T07:50:12.867Z,6.55
2023-02-03T07:55:09.952Z,6.60
2023-02-03T08:00:06.875Z,6.58
2023-02-03T08:05:03.364Z,6.58
2023-02-03T08:09:59.740Z,6.60
2023-02-03T08:14:56.209Z,6.61
2023-02-03T08:19:52.621Z,6.64
2023-02-03T08:24:49.282Z,6.64
2023-02-03T08:29:46.244Z,6.68
2023-02-03T08:34:42.712Z,6.69
2023-02-03T08:39:39.572Z,6.70
2023-02-03T08:44:36.241Z,6.73
2023-02-03T08:49:33.172Z,6.78
2023-02-03T08:54:29.572Z,6.82
2023-02-03T08:59:26.195Z,6.88
2023-02-03T09:04:24.918Z,6.92
2023-02-03T09:09:22.176Z,6.95
2023-02-03T09:14:18.597Z,7.02
2023-02-03T09:19:15.024Z,7.10
2023-02-03T09:24:11.460Z,7.14
2023-02-03T09:29:07.879Z,7.17
2023-02-03T09:34:04.310Z,7.19
2023-02-03T09:39:00.927Z,7.22
2023-02-03T09:44:11.589Z,7.31
2023-02-03T09:49:37.491Z,7.32
2023-02-03T09:54:56.991Z,7.38
2023-02-03T09:59:56.181Z,7.39
2023-02-03T10:05:15.572Z,7.41
2023-02-03T10:10:23.870Z,7.45
2023-02-03T10:15:48.015Z,7.53
2023-02-03T10:20:51.277Z,7.48
2023-02-03T10:25:57.695Z,7.42
2023-02-03T10:31:08.587Z,7.41
2023-02-03T10:36:33.218Z,7.42
2023-02-03T10:41:31.318Z,7.41
2023-02-03T10:46:33.388Z,7.50
2023-02-03T10:51:36.950Z,7.60
2023-02-03T10:56:37.540Z,7.58
2023-02-03T11:01:49.311Z,7.64
2023-02-03T11:06:56.261Z,7.73
2023-02-03T11:12:14.505Z,7.65
2023-02-03T11:17:18.650Z,7.74
2023-02-03T11:22:28.460Z,7.84
2023-02-03T11:27:27.663Z,7.94
2023-02-03T11:32:36.568Z,8.08
2023-02-03T11:37:40.615Z,8.11
2023-02-03T11:42:41.313Z,8.14
2023-02-03T11:47:37.678Z,8.16
2023-02-03T11:52:55.415Z,8.14
2023-02-03T11:58:35.355Z,8.17
2023-02-03T12:03:49.331Z,8.12
2023-02-03T12:09:02.901Z,8.02
2023-02-03T12:14:41.885Z,7.95
2023-02-03T12:20:00.400Z,7.95
2023-02-03T12:25:02.879Z,7.97
2023-02-03T12:30:12.434Z,8.04
2023-02-03T12:35:19.663Z,8.06
2023-02-03T12:40:29.190Z,8.05
2023-02-03T12:45:31.091Z,8.08
2023-02-03T12:50:35.247Z,8.09
2023-02-03T12:55:41.205Z,8.13
2023-02-03T13:00:51.227Z,8.17
2023-02-03T13:05:59.759Z,8.18
2023-02-03T13:10:59.171Z,8.27
2023-02-03T13:15:57.194Z,8.26
2023-02-03T13:20:54.523Z,8.23
2023-02-03T13:25:59.355Z,8.19
2023-02-03T13:31:17.580Z,8.10
2023-02-03T13:36:41.366Z,8.00
2023-02-03T13:41:46.088Z,7.94
2023-02-03T13:46:42.974Z,7.88
2023-02-03T13:51:46.172Z,7.95
2023-02-03T13:56:42.663Z,7.89
2023-02-03T14:01:40.861Z,7.84
2023-02-03T14:06:39.972Z,7.98
2023-02-03T14:11:36.262Z,8.03
2023-02-03T14:16:42.773Z,7.99
2023-02-03T14:21:54.978Z,7.90
2023-02-03T14:26:54.051Z,7.87
2023-02-03T14:31:59.517Z,7.81
2023-02-03T14:36:56.343Z,7.72
2023-02-03T14:42:22.807Z,7.72
2023-02-03T14:47:44.946Z,7.77
2023-02-03T14:52:56.765Z,7.69
2023-02-03T14:57:59.741Z,7.62
2023-02-03T15:03:11.451Z,7.65
2023-02-03T15:08:35.579Z,7.68
2023-02-03T15:13:32.149Z,7.64
2023-02-03T15:18:37.404Z,7.57
2023-02-03T15:23:42.040Z,7.51
2023-02-03T15:28:38.350Z,7.45
2023-02-03T15:33:37.271Z,7.40
2023-02-03T15:38:43.352Z,7.35
2023-02-03T15:43:44.233Z,7.23
2023-02-03T15:48:58.711Z,7.15
2023-02-03T15:54:00.615Z,7.19
2023-02-03T15:58:58.749Z,7.18
2023-02-03T16:03:57.503Z,6.99
2023-02-03T16:08:54.733Z,6.98
2023-02-03T16:13:51.171Z,6.93
2023-02-03T16:19:15.194Z,6.92
2023-02-03T16:24:33.412Z,6.91
2023-02-03T16:29:48.359Z,6.96
2023-02-03T16:35:04.067Z,6.87
2023-02-03T16:40:18.913Z,6.84
2023-02-03T16:45:36.791Z,6.81
2023-02-03T16:50:52.760Z,6.75
2023-02-03T16:55:51.815Z,6.73
2023-02-03T17:00:51.477Z,6.73
2023-02-03T17:05:49.027Z,6.64
2023-02-03T17:10:46.327Z,6.61
2023-02-03T17:15:45.547Z,6.65
2023-02-03T17:20:42.799Z,6.63
2023-02-03T17:25:39.908Z,6.53
2023-02-03T17:30:36.364Z,6.44
2023-02-03T17:35:32.701Z,6.43
2023-02-03T17:56:27.868Z,6.19
2023-02-03T18:01:25.922Z,6.15
2023-02-03T18:06:24.688Z,6.11
2023-02-03T18:11:20.976Z,6.06
2023-02-03T18:16:22.278Z,6.00
2023-02-03T18:21:20.701Z,5.95
2023-02-03T18:26:19.669Z,5.92
2023-02-03T18:31:17.560Z,5.92
2023-02-03T18:36:16.539Z,5.94
2023-02-03T18:41:21.385Z,5.90
2023-02-03T18:46:32.162Z,5.93
2023-02-03T18:51:28.638Z,5.92
2023-02-03T18:56:27.645Z,5.86
2023-02-03T19:01:26.462Z,5.88
2023-02-03T19:06:24.205Z,5.87
2023-02-03T19:11:20.525Z,5.89
2023-02-03T19:16:18.046Z,5.86
2023-02-03T19:21:14.711Z,5.94
2023-02-03T19:26:12.051Z,5.92
2023-02-03T19:31:13.897Z,6.01
2023-02-03T19:36:11.127Z,5.90
2023-02-03T19:41:08.646Z,5.92
2023-02-03T19:46:05.255Z,5.89
2023-02-03T19:51:01.849Z,5.88
2023-02-03T19:55:58.236Z,5.90
2023-02-03T20:00:54.602Z,5.85
2023-02-03T20:05:52.957Z,5.80
2023-02-03T20:10:49.722Z,5.82
2023-02-03T20:15:47.472Z,5.78
2023-02-03T20:20:43.871Z,5.71
2023-02-03T20:25:40.187Z,5.79
2023-02-03T20:30:36.668Z,5.83
2023-02-03T20:35:33.222Z,5.90
2023-02-03T20:40:29.890Z,5.88
2023-02-03T20:45:26.461Z,5.86
2023-02-03T20:50:31.692Z,5.83
2023-02-03T20:55:30.811Z,5.85
2023-02-03T21:00:27.792Z,5.83
2023-02-03T21:05:32.057Z,5.79
2023-02-03T21:10:28.688Z,5.83
2023-02-03T21:15:28.363Z,5.78
2023-02-03T21:20:31.138Z,5.71
2023-02-03T21:25:33.556Z,5.64
2023-02-03T21:30:34.643Z,5.53
2023-02-03T21:35:37.231Z,5.45
2023-02-03T21:40:34.737Z,5.38
2023-02-03T21:45:41.497Z,5.39
2023-02-03T21:50:40.886Z,5.54
2023-02-03T21:55:40.230Z,5.39
2023-02-03T22:00:43.198Z,5.37
2023-02-03T22:05:39.497Z,5.30
2023-02-03T22:10:35.969Z,5.31
2023-02-03T22:15:32.257Z,5.28
2023-02-03T22:20:28.829Z,5.23
2023-02-03T22:25:25.379Z,5.30
2023-02-03T22:30:21.731Z,5.23
2023-02-03T22:35:18.080Z,5.22
2023-02-03T22:40:14.450Z,5.22
2023-02-03T22:45:11.560Z,5.16
2023-02-03T22:50:10.403Z,5.12
2023-02-03T22:55:07.185Z,5.08
2023-02-03T23:00:12.296Z,5.10
2023-02-03T23:05:10.068Z,5.11
2023-02-03T23:10:09.331Z,5.04
2023-02-03T23:15:05.918Z,4.94
2023-02-03T23:20:03.450Z,4.96
2023-02-03T23:25:00.360Z,4.96
2023-02-03T23:29:56.849Z,4.99
2023-02-03T23:35:12.074Z,5.05
2023-02-03T23:40:09.627Z,5.07
2023-02-03T23:45:08.455Z,5.08
2023-02-03T23:50:05.183Z,5.05
2023-02-03T23:55:04.247Z,5.00
